Time;durP1;ratioP1;P1;durP2;ratioP2;P2;SDS_P1;SDS_P2;PMS_P1;PMS_P2;Temp;Humidity;BMP_temperature;BMP_pressure;BME280_temperature;BME280_humidity;BME280_pressure;Samples;Min_cycle;Max_cycle;Signal;HPM_P1;HPM_P2
2022/06/15 00:00:44;;;;;;;8.13;6.50;;;15.70;99.90;;;;;;5051832;28;20818;-68
2022/06/15 00:03:12;;;;;;;7.60;6.03;;;15.60;99.90;;;;;;5052552;28;20455;-68
2022/06/15 00:05:42;;;;;;;9.57;6.30;;;15.50;99.90;;;;;;5052072;28;20454;-68
2022/06/15 00:08:10;;;;;;;8.40;6.60;;;15.40;99.90;;;;;;5052297;28;20467;-68
2022/06/15 00:10:39;;;;;;;7.00;6.10;;;15.40;99.90;;;;;;5051478;28;20822;-68
2022/06/15 00:13:06;;;;;;;8.50;6.97;;;15.30;99.90;;;;;;5052377;28;20488;-68
2022/06/15 00:15:33;;;;;;;7.37;6.17;;;15.20;99.90;;;;;;5051975;28;20451;-68
2022/06/15 00:18:00;;;;;;;7.00;6.30;;;15.10;99.90;;;;;;5052135;28;20444;-69
2022/06/15 00:20:27;;;;;;;6.57;5.70;;;15.00;99.90;;;;;;5051710;28;20451;-67
2022/06/15 00:22:55;;;;;;;6.43;5.83;;;15.00;99.90;;;;;;5052000;28;20464;-69
2022/06/15 00:25:22;;;;;;;7.30;6.60;;;15.00;99.90;;;;;;5051600;28;20452;-68
2022/06/15 00:27:49;;;;;;;7.23;6.50;;;15.00;99.90;;;;;;5052216;28;20452;-68
2022/06/15 00:30:15;;;;;;;7.63;6.73;;;14.90;99.90;;;;;;5051116;28;20884;-69
2022/06/15 00:32:42;;;;;;;10.10;6.70;;;14.80;99.90;;;;;;5051693;28;20516;-69
2022/06/15 00:35:09;;;;;;;9.20;6.93;;;14.80;99.90;;;;;;5051578;28;20466;-69
2022/06/15 00:37:37;;;;;;;6.97;6.27;;;14.90;99.90;;;;;;5051800;28;20446;-69
2022/06/15 00:40:08;;;;;;;8.80;7.03;;;14.80;99.90;;;;;;5050984;28;20452;-68
2022/06/15 00:42:35;;;;;;;7.10;6.10;;;14.90;99.90;;;;;;5051334;28;20817;-68
2022/06/15 00:45:03;;;;;;;8.20;6.03;;;14.90;99.90;;;;;;5051487;28;21123;-69
2022/06/15 00:47:33;;;;;;;7.67;6.97;;;14.80;99.90;;;;;;5051770;28;20451;-69
2022/06/15 00:50:03;;;;;;;8.37;7.57;;;14.80;99.90;;;;;;5050879;28;21142;-69
2022/06/15 00:52:35;;;;;;;8.27;6.60;;;14.70;99.90;;;;;;5051318;28;20488;-69
2022/06/15 00:55:07;;;;;;;9.23;6.93;;;14.60;99.90;;;;;;5051376;28;20878;-69
2022/06/15 00:57:34;;;;;;;9.20;7.27;;;14.50;99.90;;;;;;5051678;28;20448;-68
2022/06/15 01:00:05;;;;;;;8.20;6.57;;;14.40;99.90;;;;;;5050833;28;20448;-68
2022/06/15 01:02:35;;;;;;;7.83;6.80;;;14.40;99.90;;;;;;5050853;28;20918;-68
2022/06/15 01:05:06;;;;;;;7.73;7.03;;;14.40;99.90;;;;;;5051147;28;20942;-68
2022/06/15 01:08:13;;;;;;;8.20;6.53;;;14.50;99.90;;;;;;5051725;28;20467;-68
2022/06/15 01:10:55;;;;;;;6.87;6.23;;;14.50;99.90;;;;;;5050836;28;20531;-69
2022/06/15 01:13:35;;;;;;;9.47;7.40;;;14.60;99.90;;;;;;5051383;28;20842;-68
2022/06/15 01:16:08;;;;;;;6.87;6.20;;;14.60;99.90;;;;;;5051321;28;20455;-68
2022/06/15 01:18:46;;;;;;;8.83;6.63;;;14.60;99.90;;;;;;5051630;28;20830;-68
2022/06/15 01:21:24;;;;;;;6.80;6.20;;;14.40;99.90;;;;;;5050425;28;20979;-69
2022/06/15 01:24:26;;;;;;;7.33;6.40;;;14.40;99.90;;;;;;5051579;28;20433;-66
2022/06/15 01:27:32;;;;;;;7.20;6.60;;;14.40;99.90;;;;;;5051118;28;20980;-68
2022/06/15 01:30:21;;;;;;;7.17;6.07;;;14.40;99.90;;;;;;5050037;28;20450;-68
2022/06/15 01:33:10;;;;;;;6.47;5.87;;;14.40;99.90;;;;;;5050834;28;20487;-69
2022/06/15 01:35:47;;;;;;;7.87;5.97;;;14.50;99.90;;;;;;5047255;28;20531;-68
2022/06/15 01:38:25;;;;;;;8.87;6.27;;;14.40;99.90;;;;;;5050758;28;21199;-69
2022/06/15 01:40:59;;;;;;;8.10;6.20;;;14.40;99.90;;;;;;5049990;28;20851;-68
2022/06/15 01:43:31;;;;;;;5.90;5.13;;;14.30;99.90;;;;;;5050689;28;20439;-68
2022/06/15 01:46:00;;;;;;;6.07;5.47;;;14.30;99.90;;;;;;5050317;28;20444;-68
2022/06/15 01:48:28;;;;;;;6.93;6.20;;;14.30;99.90;;;;;;5050536;28;20440;-69
2022/06/15 01:51:00;;;;;;;6.77;6.13;;;14.20;99.90;;;;;;5049374;28;20876;-69
2022/06/15 01:53:33;;;;;;;7.10;6.50;;;14.10;99.90;;;;;;5050650;28;20487;-69
2022/06/15 01:56:06;;;;;;;7.43;6.73;;;14.10;99.90;;;;;;5050153;28;20448;-68
2022/06/15 01:58:36;;;;;;;8.20;6.67;;;14.00;99.90;;;;;;5050345;28;20447;-68
2022/06/15 02:01:13;;;;;;;7.53;6.60;;;13.90;99.90;;;;;;5049217;28;20475;-69
2022/06/15 02:03:46;;;;;;;7.70;6.87;;;14.00;99.90;;;;;;5050348;28;20497;-67
2022/06/15 02:06:23;;;;;;;10.47;7.00;;;13.90;99.90;;;;;;5050004;28;20455;-68
2022/06/15 02:08:58;;;;;;;8.10;6.73;;;13.90;99.90;;;;;;5050003;28;20460;-68
2022/06/15 02:11:32;;;;;;;8.23;7.43;;;13.90;99.90;;;;;;5049054;28;20471;-69
2022/06/15 02:14:04;;;;;;;9.93;7.93;;;13.90;99.90;;;;;;5050276;28;20452;-68
2022/06/15 02:16:35;;;;;;;8.80;6.50;;;13.80;99.90;;;;;;5049942;28;20444;-66
2022/06/15 02:19:05;;;;;;;7.60;6.47;;;13.70;99.90;;;;;;5050181;28;20444;-68
2022/06/15 02:21:34;;;;;;;7.60;6.90;;;13.60;99.90;;;;;;5049083;28;21011;-68
2022/06/15 02:24:02;;;;;;;7.60;6.80;;;13.70;99.90;;;;;;5049813;28;20455;-69
2022/06/15 02:26:32;;;;;;;8.53;6.67;;;13.70;99.90;;;;;;5049827;28;20452;-69
2022/06/15 02:29:03;;;;;;;8.80;6.50;;;13.70;99.90;;;;;;5050053;28;20456;-68
2022/06/15 02:31:30;;;;;;;8.17;6.60;;;13.60;99.90;;;;;;5048969;28;20467;-69
2022/06/15 02:33:59;;;;;;;10.30;7.10;;;13.60;99.90;;;;;;5050136;28;20535;-69
2022/06/15 02:36:26;;;;;;;7.97;6.77;;;13.40;99.90;;;;;;5049326;28;20482;-68
2022/06/15 02:38:53;;;;;;;7.37;6.67;;;13.30;99.90;;;;;;5050003;28;20474;-68
2022/06/15 02:41:20;;;;;;;10.30;7.40;;;13.20;99.90;;;;;;5048998;28;20483;-69
2022/06/15 02:43:50;;;;;;;7.50;6.70;;;13.20;99.90;;;;;;5049666;28;20533;-68
2022/06/15 02:46:19;;;;;;;9.90;8.50;;;13.10;99.90;;;;;;5049361;28;20448;-69
2022/06/15 02:48:47;;;;;;;8.17;7.37;;;13.10;99.90;;;;;;5049641;28;20458;-68
2022/06/15 02:51:19;;;;;;;8.00;7.30;;;13.10;99.90;;;;;;5048505;28;20471;-68
2022/06/15 02:53:49;;;;;;;7.90;7.10;;;13.00;99.90;;;;;;5049647;28;20501;-68
2022/06/15 02:56:17;;;;;;;8.50;7.43;;;13.00;99.90;;;;;;5049189;28;20574;-69
2022/06/15 02:58:47;;;;;;;8.93;7.83;;;13.00;99.90;;;;;;5049502;28;20550;-68
2022/06/15 03:01:14;;;;;;;8.80;7.90;;;12.90;99.90;;;;;;5048615;28;20475;-68
2022/06/15 03:03:42;;;;;;;11.17;8.30;;;12.80;99.90;;;;;;5049376;28;21054;-66
2022/06/15 03:06:10;;;;;;;14.30;10.17;;;12.80;99.90;;;;;;5049415;28;20454;-68
2022/06/15 03:08:38;;;;;;;9.03;7.70;;;12.70;99.90;;;;;;5049403;28;20466;-67
2022/06/15 03:11:05;;;;;;;9.27;8.33;;;12.60;99.90;;;;;;5048610;28;20547;-68
2022/06/15 03:13:32;;;;;;;9.77;8.60;;;12.70;99.90;;;;;;5049430;28;20483;-69
2022/06/15 03:16:00;;;;;;;9.83;8.20;;;12.60;99.90;;;;;;5048935;28;20454;-68
2022/06/15 03:18:27;;;;;;;8.07;7.27;;;12.60;99.90;;;;;;5049265;28;20522;-69
2022/06/15 03:20:57;;;;;;;10.70;8.60;;;12.50;99.90;;;;;;5048500;28;20969;-69
2022/06/15 03:23:24;;;;;;;8.87;7.97;;;12.60;99.90;;;;;;5049412;28;20455;-67
2022/06/15 03:25:54;;;;;;;9.30;8.30;;;12.50;99.90;;;;;;5049742;28;20939;-69
2022/06/15 03:28:22;;;;;;;10.13;7.87;;;12.50;99.90;;;;;;5053133;28;20451;-68
2022/06/15 03:30:49;;;;;;;8.93;8.00;;;12.50;99.90;;;;;;5052102;28;20451;-68
2022/06/15 03:33:16;;;;;;;9.33;8.10;;;12.40;99.90;;;;;;5052892;28;20486;-66
2022/06/15 03:35:43;;;;;;;11.80;8.00;;;12.40;99.90;;;;;;5052704;28;20447;-69
2022/06/15 03:38:11;;;;;;;9.90;8.70;;;12.40;99.90;;;;;;5052949;28;20551;-68
2022/06/15 03:40:39;;;;;;;10.77;9.63;;;12.50;99.90;;;;;;5052208;28;20455;-68
2022/06/15 03:43:08;;;;;;;9.90;8.87;;;12.50;99.90;;;;;;5052865;28;20471;-68
2022/06/15 03:45:36;;;;;;;11.00;8.27;;;12.60;99.90;;;;;;5052952;28;20452;-68
2022/06/15 03:48:03;;;;;;;9.93;7.90;;;12.50;99.90;;;;;;5053193;28;20443;-68
2022/06/15 03:50:32;;;;;;;11.20;8.23;;;12.40;99.90;;;;;;5052247;28;20951;-68
2022/06/15 03:53:00;;;;;;;9.50;8.50;;;12.40;99.90;;;;;;5052928;28;20500;-68
2022/06/15 03:55:28;;;;;;;10.20;8.83;;;12.40;99.90;;;;;;5052644;28;20844;-68
2022/06/15 03:57:56;;;;;;;12.80;8.80;;;12.50;99.90;;;;;;5052886;28;20448;-67
2022/06/15 04:00:28;;;;;;;11.17;7.77;;;12.60;99.90;;;;;;5052208;28;20831;-67
2022/06/15 04:02:55;;;;;;;10.07;9.07;;;12.60;99.90;;;;;;5052660;28;20470;-68
2022/06/15 04:05:26;;;;;;;9.63;8.63;;;12.60;99.90;;;;;;5052340;28;20451;-68
2022/06/15 04:10:38;;;;;;;9.73;8.07;;;12.70;99.90;;;;;;5051767;28;20428;-66
2022/06/15 04:13:05;;;;;;;9.60;8.17;;;12.80;99.90;;;;;;5049562;28;20483;-69
2022/06/15 04:15:34;;;;;;;11.80;8.47;;;12.80;99.90;;;;;;5051980;28;20452;-68
2022/06/15 04:18:01;;;;;;;8.53;7.63;;;12.90;99.90;;;;;;5052111;28;20452;-69
2022/06/15 04:20:34;;;;;;;9.90;8.90;;;13.00;99.90;;;;;;5050841;28;20746;-67
2022/06/15 04:23:01;;;;;;;12.00;8.50;;;13.00;99.90;;;;;;5051896;28;20491;-68
2022/06/15 04:25:29;;;;;;;8.47;7.57;;;13.10;99.90;;;;;;5051940;28;20478;-68
2022/06/15 04:27:56;;;;;;;9.93;8.73;;;13.20;99.90;;;;;;5052190;28;20446;-68
2022/06/15 04:30:23;;;;;;;10.27;8.00;;;13.20;99.90;;;;;;5051139;28;20452;-69
2022/06/15 04:32:51;;;;;;;10.63;7.40;;;13.30;99.90;;;;;;5051720;28;20487;-68
2022/06/15 04:35:18;;;;;;;10.00;7.70;;;13.30;99.90;;;;;;5051554;28;20879;-67
2022/06/15 04:37:45;;;;;;;8.13;7.23;;;13.40;99.90;;;;;;5050420;28;20448;-69
2022/06/15 04:40:13;;;;;;;9.40;7.43;;;13.50;99.90;;;;;;5051070;28;20455;-68
2022/06/15 04:42:41;;;;;;;9.57;8.07;;;13.60;99.90;;;;;;5051811;28;20837;-68
2022/06/15 04:45:09;;;;;;;8.67;7.77;;;13.60;99.90;;;;;;5051358;28;20458;-69
2022/06/15 04:47:36;;;;;;;9.50;8.60;;;13.70;99.90;;;;;;5051597;28;20448;-68
2022/06/15 04:50:07;;;;;;;10.80;8.00;;;13.70;99.90;;;;;;5050783;28;21014;-68
2022/06/15 04:52:34;;;;;;;9.30;8.30;;;13.70;99.90;;;;;;5051801;28;20558;-68
2022/06/15 04:55:01;;;;;;;10.57;8.50;;;13.70;99.90;;;;;;5051129;28;20941;-69
2022/06/15 04:57:28;;;;;;;10.00;8.43;;;13.70;99.90;;;;;;5051302;28;20447;-69
2022/06/15 04:59:55;;;;;;;11.40;8.97;;;13.90;99.90;;;;;;5050635;28;20444;-66
2022/06/15 05:02:22;;;;;;;9.60;8.70;;;13.90;99.90;;;;;;5051171;28;20547;-69
2022/06/15 05:04:48;;;;;;;10.67;9.10;;;14.00;99.90;;;;;;5050783;28;20887;-69
2022/06/15 05:07:17;;;;;;;9.53;8.50;;;14.10;99.90;;;;;;5051268;28;20543;-68
2022/06/15 05:09:47;;;;;;;12.40;10.33;;;14.20;99.90;;;;;;5051043;28;20853;-67
2022/06/15 05:12:14;;;;;;;8.97;8.10;;;14.30;99.90;;;;;;5051016;28;21044;-69
2022/06/15 05:14:41;;;;;;;9.77;7.83;;;14.40;99.90;;;;;;5050665;28;20506;-69
2022/06/15 05:17:07;;;;;;;10.00;9.10;;;14.50;99.90;;;;;;5051033;28;20448;-69
2022/06/15 05:19:34;;;;;;;9.73;8.73;;;14.60;99.90;;;;;;5050963;28;20451;-69
2022/06/15 05:22:01;;;;;;;12.03;8.20;;;14.70;99.90;;;;;;5050022;28;21012;-69
2022/06/15 05:24:29;;;;;;;9.97;8.97;;;14.80;99.90;;;;;;5050693;28;20440;-69
2022/06/15 05:26:56;;;;;;;8.80;8.00;;;14.80;99.90;;;;;;5051025;28;20527;-68
2022/06/15 05:29:23;;;;;;;9.47;8.47;;;14.90;99.90;;;;;;5051222;28;21131;-69
2022/06/15 05:31:50;;;;;;;9.53;8.50;;;15.00;99.90;;;;;;5049885;28;20464;-70
2022/06/15 05:34:17;;;;;;;9.50;8.50;;;15.10;99.90;;;;;;5051282;28;20486;-67
2022/06/15 05:36:44;;;;;;;9.87;8.97;;;15.20;99.90;;;;;;5050798;28;20542;-70
2022/06/15 05:39:12;;;;;;;9.00;8.10;;;15.30;99.90;;;;;;5050668;28;20456;-68
2022/06/15 05:41:41;;;;;;;9.13;7.50;;;15.40;99.90;;;;;;5049528;28;20511;-69
2022/06/15 05:44:08;;;;;;;9.10;8.20;;;15.50;99.90;;;;;;5050667;28;20527;-69
2022/06/15 05:46:35;;;;;;;8.87;7.97;;;15.60;99.90;;;;;;5050044;28;20462;-69
2022/06/15 05:49:04;;;;;;;9.60;8.70;;;15.80;99.90;;;;;;5050241;28;20452;-69
2022/06/15 05:51:31;;;;;;;8.90;8.00;;;15.90;99.90;;;;;;5049652;28;20845;-68
2022/06/15 05:53:59;;;;;;;7.50;6.80;;;16.10;99.90;;;;;;5050358;28;20579;-68
2022/06/15 05:56:26;;;;;;;11.10;8.27;;;16.10;99.90;;;;;;5050145;28;20440;-68
2022/06/15 05:58:54;;;;;;;10.00;7.20;;;16.30;99.90;;;;;;5050220;28;20447;-70
2022/06/15 06:01:24;;;;;;;10.57;7.37;;;16.40;99.90;;;;;;5049574;28;20471;-70
2022/06/15 06:03:52;;;;;;;7.90;6.77;;;16.50;99.90;;;;;;5050615;28;20440;-69
2022/06/15 06:06:19;;;;;;;8.30;7.50;;;16.60;99.90;;;;;;5049939;28;20451;-70
2022/06/15 06:08:46;;;;;;;9.33;6.70;;;16.70;99.90;;;;;;5050037;28;20462;-69
2022/06/15 06:11:13;;;;;;;7.23;6.53;;;16.90;99.90;;;;;;5049169;28;20998;-70
2022/06/15 06:13:40;;;;;;;9.30;6.30;;;17.10;99.90;;;;;;5049905;28;20472;-69
2022/06/15 06:16:09;;;;;;;7.10;6.13;;;17.20;99.90;;;;;;5049787;28;20447;-70
2022/06/15 06:18:36;;;;;;;7.57;5.50;;;17.30;99.90;;;;;;5050162;28;20444;-69
2022/06/15 06:21:05;;;;;;;6.83;5.50;;;17.40;99.90;;;;;;5049005;28;21133;-68
2022/06/15 06:23:31;;;;;;;5.63;5.00;;;17.60;99.90;;;;;;5049965;28;20448;-69
2022/06/15 06:25:58;;;;;;;6.60;4.57;;;17.80;99.90;;;;;;5049629;28;20456;-68
2022/06/15 06:28:28;;;;;;;6.20;4.97;;;17.90;99.90;;;;;;5050330;28;20450;-69
2022/06/15 06:30:57;;;;;;;9.67;5.40;;;18.00;99.90;;;;;;5049249;28;20448;-69
2022/06/15 06:33:26;;;;;;;6.30;5.00;;;18.20;99.90;;;;;;5050179;28;20475;-69
2022/06/15 06:35:52;;;;;;;6.20;4.77;;;18.30;99.90;;;;;;5049620;28;20510;-69
2022/06/15 06:38:21;;;;;;;6.90;5.50;;;18.50;99.90;;;;;;5050084;28;20448;-69
2022/06/15 06:40:48;;;;;;;6.23;5.10;;;18.60;99.90;;;;;;5049314;28;20452;-68
2022/06/15 06:43:15;;;;;;;5.67;4.93;;;18.70;99.90;;;;;;5049919;28;20446;-68
2022/06/15 06:45:42;;;;;;;7.27;5.20;;;18.80;99.90;;;;;;5049788;28;20448;-69
2022/06/15 06:48:09;;;;;;;7.80;5.07;;;18.90;99.90;;;;;;5049920;28;20460;-68
2022/06/15 06:50:39;;;;;;;5.30;4.80;;;19.00;99.90;;;;;;5048898;28;20810;-69
2022/06/15 06:53:06;;;;;;;7.53;4.47;;;19.20;99.90;;;;;;5049451;28;20499;-67
2022/06/15 06:55:33;;;;;;;14.63;5.57;;;19.30;99.90;;;;;;5049392;28;20444;-69
2022/06/15 06:58:01;;;;;;;10.77;4.73;;;19.50;99.90;;;;;;5049778;28;20539;-68
2022/06/15 07:00:29;;;;;;;6.53;4.90;;;19.60;99.90;;;;;;5049149;28;20456;-68
2022/06/15 07:02:58;;;;;;;5.70;5.00;;;19.80;99.90;;;;;;5053531;28;20510;-68
2022/06/15 07:05:25;;;;;;;9.17;4.93;;;19.90;99.90;;;;;;5053032;28;20444;-69
2022/06/15 07:07:53;;;;;;;6.10;4.90;;;20.10;99.90;;;;;;5053462;28;20459;-69
2022/06/15 07:10:20;;;;;;;5.80;4.83;;;20.20;99.90;;;;;;5052636;28;20979;-70
2022/06/15 07:12:47;;;;;;;5.43;3.83;;;20.40;99.90;;;;;;5053530;28;20467;-71
2022/06/15 07:15:15;;;;;;;8.20;5.33;;;20.50;99.90;;;;;;5053436;28;20523;-70
2022/06/15 07:17:42;;;;;;;7.53;4.83;;;20.50;99.90;;;;;;5053306;28;20455;-70
2022/06/15 07:20:10;;;;;;;5.63;4.70;;;20.60;99.90;;;;;;5052308;28;20953;-70
2022/06/15 07:22:38;;;;;;;7.90;5.10;;;20.80;99.90;;;;;;5053360;28;21081;-69
2022/06/15 07:25:08;;;;;;;7.37;4.37;;;20.90;99.90;;;;;;5053036;28;20435;-69
2022/06/15 07:27:35;;;;;;;5.90;4.50;;;20.90;99.90;;;;;;5053393;28;20535;-68
2022/06/15 07:30:04;;;;;;;5.97;4.70;;;21.10;99.90;;;;;;5052390;28;20448;-69
2022/06/15 07:32:31;;;;;;;9.00;5.43;;;21.20;99.90;;;;;;5053107;28;20842;-68
2022/06/15 07:34:58;;;;;;;8.53;5.13;;;21.30;99.90;;;;;;5052460;28;21202;-69
2022/06/15 07:37:24;;;;;;;5.60;4.20;;;21.50;99.90;;;;;;5053120;28;20539;-69
2022/06/15 07:39:51;;;;;;;7.50;4.23;;;21.60;99.90;;;;;;5052336;28;20817;-70
2022/06/15 07:42:20;;;;;;;5.60;4.50;;;21.70;99.90;;;;;;5052541;28;20923;-71
2022/06/15 07:44:46;;;;;;;10.37;5.77;;;21.80;99.90;;;;;;5052535;28;20574;-69
2022/06/15 07:49:58;;;;;;;4.40;3.60;;;22.00;99.90;;;;;;5052181;28;20662;-69
2022/06/15 07:52:27;;;;;;;5.83;3.87;;;22.00;99.90;;;;;;5052880;28;20482;-69
2022/06/15 07:54:54;;;;;;;9.93;4.87;;;22.10;99.90;;;;;;5052163;28;20822;-70
2022/06/15 07:57:23;;;;;;;4.57;3.97;;;22.30;99.90;;;;;;5052643;28;20460;-69
2022/06/15 07:59:49;;;;;;;8.93;5.50;;;22.30;99.90;;;;;;5051861;28;20473;-68
2022/06/15 08:02:18;;;;;;;5.25;4.10;;;22.40;99.90;;;;;;5051555;28;20446;-69
2022/06/15 08:04:45;;;;;;;5.10;4.23;;;22.50;99.90;;;;;;5052083;28;20717;-69
2022/06/15 08:07:14;;;;;;;8.00;4.37;;;22.70;99.90;;;;;;5052366;28;20946;-69
2022/06/15 08:09:42;;;;;;;6.80;5.00;;;22.90;99.90;;;;;;5052122;28;20442;-69
2022/06/15 08:12:14;;;;;;;6.93;4.73;;;23.00;99.90;;;;;;5051413;28;21024;-69
2022/06/15 08:14:46;;;;;;;7.20;4.37;;;23.20;99.90;;;;;;5052132;28;20542;-69
2022/06/15 08:17:16;;;;;;;5.23;4.73;;;23.40;99.90;;;;;;5052424;28;20448;-69
2022/06/15 08:19:47;;;;;;;6.73;4.30;;;23.40;99.20;;;;;;5052099;28;20517;-70
2022/06/15 08:22:15;;;;;;;6.67;4.50;;;23.50;99.30;;;;;;5051976;28;20475;-69
2022/06/15 08:24:43;;;;;;;5.13;4.63;;;23.50;99.90;;;;;;5051700;28;20447;-69
2022/06/15 08:27:11;;;;;;;5.53;4.13;;;23.60;99.80;;;;;;5052262;28;20812;-70
2022/06/15 08:29:39;;;;;;;5.60;4.23;;;23.60;99.90;;;;;;5051992;28;20483;-68
2022/06/15 08:32:08;;;;;;;6.47;4.73;;;23.70;99.90;;;;;;5051200;28;20472;-70
2022/06/15 08:34:37;;;;;;;7.37;4.60;;;23.80;99.80;;;;;;5051452;28;20507;-70
2022/06/15 08:37:06;;;;;;;5.07;4.57;;;23.90;98.40;;;;;;5051780;28;20461;-70
2022/06/15 08:39:33;;;;;;;5.83;4.77;;;24.10;98.60;;;;;;5052028;28;20472;-70
2022/06/15 08:42:07;;;;;;;6.60;4.60;;;24.30;99.00;;;;;;5051125;28;20464;-67
2022/06/15 08:44:44;;;;;;;6.33;4.63;;;24.40;97.90;;;;;;5051384;28;20946;-70
2022/06/15 08:47:28;;;;;;;4.97;4.40;;;24.50;98.20;;;;;;5051612;28;20937;-73
2022/06/15 08:50:00;;;;;;;3.97;3.53;;;24.60;98.40;;;;;;5050824;28;21113;-69
2022/06/15 08:52:35;;;;;;;4.67;4.20;;;24.70;97.60;;;;;;5051411;28;20464;-70
2022/06/15 08:55:08;;;;;;;5.83;4.60;;;24.70;97.20;;;;;;5051236;28;20505;-69
2022/06/15 08:57:42;;;;;;;4.60;3.83;;;24.90;96.40;;;;;;5051534;28;20462;-68
2022/06/15 09:00:14;;;;;;;4.37;3.90;;;25.10;96.80;;;;;;5050656;28;20758;-69
2022/06/15 09:02:51;;;;;;;6.77;4.00;;;25.30;96.30;;;;;;5051388;28;20468;-69
2022/06/15 09:05:31;;;;;;;5.60;4.60;;;25.50;95.50;;;;;;5051360;28;20436;-70
2022/06/15 09:08:33;;;;;;;6.50;3.97;;;25.50;95.40;;;;;;5051501;28;20460;-70
2022/06/15 09:11:10;;;;;;;6.13;4.40;;;25.40;93.20;;;;;;5050283;28;20954;-69
2022/06/15 09:13:56;;;;;;;4.33;3.80;;;25.50;95.10;;;;;;5051718;28;20444;-69
2022/06/15 09:16:30;;;;;;;5.83;3.73;;;25.50;93.20;;;;;;5051245;28;20444;-70
2022/06/15 09:19:02;;;;;;;4.20;3.80;;;25.60;95.10;;;;;;5051501;28;20820;-69
2022/06/15 09:21:32;;;;;;;4.23;3.50;;;25.80;95.60;;;;;;5050708;28;20478;-70
2022/06/15 09:24:03;;;;;;;8.03;4.07;;;25.90;93.00;;;;;;5050859;28;20440;-70
2022/06/15 09:26:35;;;;;;;4.40;3.53;;;26.10;91.80;;;;;;5050831;28;20455;-70
2022/06/15 09:29:07;;;;;;;5.50;3.97;;;26.30;92.90;;;;;;5051058;28;20455;-69
2022/06/15 09:31:41;;;;;;;4.83;3.73;;;26.50;91.60;;;;;;5049981;28;20472;-70
2022/06/15 09:34:14;;;;;;;6.50;3.57;;;26.60;91.00;;;;;;5050926;28;20514;-69
2022/06/15 09:36:47;;;;;;;6.60;4.00;;;26.80;91.10;;;;;;5050553;28;20448;-70
2022/06/15 09:39:14;;;;;;;5.83;3.73;;;26.80;89.40;;;;;;5050814;28;20448;-70
2022/06/15 09:41:48;;;;;;;5.50;3.80;;;26.90;91.10;;;;;;5049700;28;20472;-70
2022/06/15 09:44:27;;;;;;;4.80;3.73;;;26.90;86.60;;;;;;5050534;28;20444;-68
2022/06/15 09:47:01;;;;;;;4.20;3.80;;;27.00;86.70;;;;;;5050661;28;20869;-70
2022/06/15 09:49:43;;;;;;;6.47;4.37;;;27.10;85.40;;;;;;5050524;28;20486;-69
2022/06/15 09:52:20;;;;;;;6.83;4.23;;;27.10;89.10;;;;;;5051445;28;20539;-70
2022/06/15 09:54:59;;;;;;;6.70;3.90;;;27.20;87.60;;;;;;5050109;28;20479;-70
2022/06/15 09:57:26;;;;;;;4.37;3.73;;;27.40;87.20;;;;;;5050304;28;20447;-70
2022/06/15 09:59:53;;;;;;;6.63;3.77;;;27.80;88.80;;;;;;5050020;28;20448;-70
2022/06/15 10:02:23;;;;;;;6.20;3.73;;;28.30;86.10;;;;;;5050094;28;20468;-70
2022/06/15 10:04:52;;;;;;;5.30;3.70;;;29.00;87.70;;;;;;5049755;28;20957;-71
2022/06/15 10:07:26;;;;;;;4.60;3.37;;;30.20;78.80;;;;;;5050283;28;20458;-70
2022/06/15 10:09:56;;;;;;;6.63;3.70;;;31.40;73.00;;;;;;5049742;28;20502;-71
2022/06/15 10:15:55;;;;;;;4.20;3.40;;;32.50;68.10;;;;;;5043950;28;20471;-71
2022/06/15 10:18:31;;;;;;;7.23;3.50;;;33.10;72.30;;;;;;5049944;28;20952;-70
2022/06/15 10:21:07;;;;;;;6.33;3.90;;;32.80;60.70;;;;;;5049078;28;20516;-71
2022/06/15 10:23:43;;;;;;;6.77;3.60;;;31.70;62.60;;;;;;5049823;28;21006;-70
2022/06/15 10:26:12;;;;;;;4.60;3.50;;;31.00;68.00;;;;;;5049526;28;20439;-70
2022/06/15 10:28:42;;;;;;;6.80;3.23;;;31.70;65.90;;;;;;5050056;28;20448;-70
2022/06/15 10:31:14;;;;;;;5.97;3.70;;;31.70;64.20;;;;;;5048939;28;20463;-70
2022/06/15 10:33:43;;;;;;;5.83;3.90;;;31.70;63.00;;;;;;5049837;28;20459;-70
2022/06/15 10:36:30;;;;;;;5.47;3.37;;;31.80;63.20;;;;;;5048554;28;20480;-70
2022/06/15 10:39:02;;;;;;;5.30;3.40;;;31.60;63.40;;;;;;5049349;28;20539;-70
2022/06/15 10:41:47;;;;;;;3.20;2.90;;;32.00;62.80;;;;;;5048600;28;21020;-70
2022/06/15 10:44:16;;;;;;;7.27;3.60;;;32.50;66.10;;;;;;5049394;28;20502;-70
2022/06/15 10:46:52;;;;;;;4.40;3.20;;;33.40;61.20;;;;;;5049616;28;20505;-71
2022/06/15 10:49:19;;;;;;;3.80;2.70;;;34.00;59.50;;;;;;5049773;28;21001;-70
2022/06/15 10:51:48;;;;;;;4.00;3.20;;;34.20;56.50;;;;;;5048782;28;20468;-70
2022/06/15 10:54:21;;;;;;;4.93;2.47;;;34.20;56.30;;;;;;5049347;28;20452;-71
2022/06/15 11:02:29;;;;;;;3.73;2.70;;;33.30;47.50;;;;;;5049440;28;20443;-70
2022/06/15 11:05:00;;;;;;;4.53;2.60;;;33.80;52.20;;;;;;5049139;28;20874;-70
2022/06/15 11:07:34;;;;;;;3.03;2.60;;;34.50;50.60;;;;;;5049406;28;20439;-70
2022/06/15 11:10:07;;;;;;;3.77;2.87;;;34.90;52.60;;;;;;5048563;28;21104;-70
2022/06/15 11:12:37;;;;;;;4.13;2.80;;;35.00;48.20;;;;;;5049442;28;20475;-71
2022/06/15 11:15:22;;;;;;;5.60;3.50;;;35.10;52.90;;;;;;5048988;28;20494;-70
2022/06/15 11:18:03;;;;;;;6.70;3.47;;;34.80;53.70;;;;;;5049302;28;21162;-70
2022/06/15 11:20:40;;;;;;;5.47;3.60;;;34.40;53.90;;;;;;5048593;28;20440;-67
2022/06/15 11:23:16;;;;;;;5.47;3.13;;;33.40;53.30;;;;;;5049361;28;20842;-69
2022/06/15 11:25:47;;;;;;;5.63;3.33;;;32.80;53.60;;;;;;5049003;28;20922;-70
2022/06/15 11:28:20;;;;;;;3.70;3.30;;;33.10;56.50;;;;;;5049179;28;20830;-71
2022/06/15 11:30:55;;;;;;;6.23;3.50;;;33.80;57.60;;;;;;5048487;28;20454;-70
2022/06/15 11:33:29;;;;;;;7.57;4.30;;;34.30;53.80;;;;;;5049166;28;20451;-70
2022/06/15 11:36:03;;;;;;;4.90;3.97;;;34.00;55.00;;;;;;5048732;28;20489;-70
2022/06/15 11:38:43;;;;;;;3.83;3.37;;;33.30;55.00;;;;;;5049024;28;20965;-70
2022/06/15 11:41:19;;;;;;;4.23;3.70;;;32.70;58.60;;;;;;5048731;28;20503;-69
2022/06/15 11:43:50;;;;;;;4.47;3.77;;;32.90;56.40;;;;;;5049333;28;20454;-68
2022/06/15 11:46:29;;;;;;;4.03;3.20;;;33.20;55.30;;;;;;5049210;28;20538;-69
2022/06/15 11:49:07;;;;;;;5.10;3.43;;;33.50;54.70;;;;;;5053119;28;20450;-71
2022/06/15 11:51:44;;;;;;;5.80;3.77;;;33.80;57.10;;;;;;5052530;28;20470;-70
2022/06/15 11:54:28;;;;;;;4.43;3.37;;;34.50;54.10;;;;;;5053161;28;20443;-70
2022/06/15 11:57:04;;;;;;;5.20;2.90;;;35.40;55.70;;;;;;5054081;28;20497;-70
2022/06/15 11:59:41;;;;;;;6.03;3.23;;;36.00;53.70;;;;;;5052938;28;20443;-69
2022/06/15 12:02:14;;;;;;;6.47;3.50;;;36.70;53.50;;;;;;5052273;28;20455;-69
2022/06/15 12:05:25;;;;;;;4.57;3.20;;;37.40;53.20;;;;;;5052379;28;20446;-70
2022/06/15 12:08:03;;;;;;;2.50;2.20;;;37.40;48.20;;;;;;5043476;28;20832;-69
2022/06/15 12:10:42;;;;;;;4.83;2.90;;;37.50;49.90;;;;;;5051848;28;20996;-68
2022/06/15 12:13:24;;;;;;;5.03;3.33;;;37.20;47.60;;;;;;5052473;28;20811;-69
2022/06/15 12:15:56;;;;;;;3.60;2.70;;;38.10;48.70;;;;;;5051890;28;20489;-71
2022/06/15 12:18:38;;;;;;;4.30;2.80;;;38.30;45.80;;;;;;5052530;28;20440;-71
2022/06/15 12:21:11;;;;;;;3.90;2.90;;;37.90;42.90;;;;;;5051269;28;20464;-68
2022/06/15 12:23:43;;;;;;;5.20;3.20;;;36.90;45.30;;;;;;5052188;28;20447;-69
2022/06/15 12:26:25;;;;;;;5.80;3.10;;;36.30;48.40;;;;;;5051770;28;20456;-69
2022/06/15 12:29:01;;;;;;;3.87;2.97;;;35.80;46.10;;;;;;5052008;28;20451;-70
2022/06/15 12:31:36;;;;;;;4.60;2.80;;;35.90;46.70;;;;;;5051365;28;20485;-70
2022/06/15 12:34:10;;;;;;;3.83;3.13;;;35.10;46.60;;;;;;5051972;28;20444;-69
2022/06/15 12:36:44;;;;;;;5.17;3.17;;;34.80;46.40;;;;;;5051446;28;20483;-69
2022/06/15 12:39:20;;;;;;;5.60;2.97;;;34.70;45.80;;;;;;5051782;28;20941;-69
2022/06/15 12:44:38;;;;;;;4.90;2.87;;;35.30;45.20;;;;;;5051524;28;20554;-69
2022/06/15 12:47:10;;;;;;;3.60;2.80;;;35.40;43.20;;;;;;5051656;28;20451;-69
2022/06/15 12:49:43;;;;;;;4.20;2.63;;;35.60;44.80;;;;;;5051626;28;21248;-68
2022/06/15 12:52:16;;;;;;;3.70;2.77;;;36.30;49.60;;;;;;5051276;28;20507;-69
2022/06/15 12:55:00;;;;;;;3.70;3.00;;;37.20;49.70;;;;;;5051349;28;20791;-69
2022/06/15 12:57:38;;;;;;;4.40;3.07;;;38.20;49.20;;;;;;5051290;28;20450;-71
2022/06/15 13:00:14;;;;;;;5.70;2.80;;;39.20;43.10;;;;;;5050025;28;20466;-69
2022/06/15 13:02:48;;;;;;;4.60;3.10;;;39.40;40.90;;;;;;5051502;28;20464;-69
2022/06/15 13:05:22;;;;;;;3.27;2.60;;;37.90;42.50;;;;;;5050966;28;20455;-70
2022/06/15 13:08:21;;;;;;;3.60;2.67;;;37.10;44.50;;;;;;5051266;28;20996;-69
2022/06/15 13:11:12;;;;;;;4.83;2.63;;;37.20;42.30;;;;;;5050615;28;20444;-69
2022/06/15 13:13:45;;;;;;;3.27;2.37;;;37.30;43.70;;;;;;5051251;28;20950;-70
2022/06/15 13:16:15;;;;;;;3.50;2.80;;;37.40;42.80;;;;;;5050794;28;20479;-69
2022/06/15 13:18:48;;;;;;;4.37;2.80;;;37.10;47.10;;;;;;5051259;28;20470;-69
2022/06/15 13:21:17;;;;;;;3.63;2.57;;;37.90;42.60;;;;;;5050230;28;20539;-70
2022/06/15 13:23:48;;;;;;;2.93;2.63;;;38.20;41.40;;;;;;5051007;28;20447;-69